Terminal Aerodrome Forecast
Issued by NWS

Home | Current Version | Previous Version | Text Only | Print | Product List | Glossary On
Versions: 1 2 3 4 5 6 7 8 9 10 11 12 13 14 15 16 17 18 19 20 21 22 23 24 25 26 27 28 29 30 31 32 33 34 35
000
FTUS44 KFWD 030520
TAFFTW
TAF
KFTW 030520Z 0306/0406 18003KT 3/4SM -DZ BR VV002
      TEMPO 0306/0310 1/4SM FG VV001
     FM031100 20004KT 1SM -DZ BR OVC004
      TEMPO 0311/0314 1/2SM FG VV002
     FM031600 19010KT 4SM BR OVC007
     FM032000 18014KT P6SM VCSH OVC015
     FM040200 16009KT 5SM BR VCSH OVC008=

USA.gov is the U.S. government's official web portal to all federal, state and local government web resources and services.